Time;durP1;ratioP1;P1;durP2;ratioP2;P2;SDS_P1;SDS_P2;PMS_P1;PMS_P2;Temp;Humidity;BMP_temperature;BMP_pressure;BME280_temperature;BME280_humidity;BME280_pressure;Samples;Min_cycle;Max_cycle;Signal;HPM_P1;HPM_P2
2023/10/10 00:01:07;;;;;;;11.87;9.17;;;12.90;99.90;;;;;;5036997;28;20409;-68
2023/10/10 00:03:38;;;;;;;14.10;9.07;;;12.90;99.90;;;;;;5020667;28;20439;-69
2023/10/10 00:06:08;;;;;;;11.03;9.00;;;12.90;99.90;;;;;;5036494;28;20433;-69
2023/10/10 00:08:40;;;;;;;12.97;7.73;;;13.00;99.90;;;;;;5036917;28;20428;-69
2023/10/10 00:11:18;;;;;;;11.53;9.10;;;13.00;99.90;;;;;;5020945;28;20967;-68
2023/10/10 00:13:52;;;;;;;11.50;8.93;;;13.00;99.90;;;;;;5038344;28;20450;-69
2023/10/10 00:16:25;;;;;;;14.90;9.83;;;13.00;99.90;;;;;;5021002;28;20491;-69
2023/10/10 00:18:55;;;;;;;11.73;8.70;;;13.00;99.90;;;;;;5005583;28;20421;-68
2023/10/10 00:21:23;;;;;;;14.13;9.90;;;13.00;99.90;;;;;;5021543;28;20402;-68
2023/10/10 00:23:54;;;;;;;12.80;8.70;;;13.00;99.90;;;;;;5020642;28;20378;-68
2023/10/10 00:26:22;;;;;;;12.20;9.37;;;13.00;99.90;;;;;;5003693;28;20492;-69
2023/10/10 00:28:54;;;;;;;12.53;9.17;;;13.00;99.90;;;;;;5036737;28;20455;-68
2023/10/10 00:31:22;;;;;;;13.43;9.63;;;13.00;99.90;;;;;;5020570;28;20441;-68
2023/10/10 00:33:51;;;;;;;10.40;8.47;;;13.00;99.90;;;;;;5036587;28;20414;-69
2023/10/10 00:36:22;;;;;;;12.27;9.40;;;13.10;99.90;;;;;;5053355;28;20529;-69
2023/10/10 00:38:59;;;;;;;15.37;9.63;;;13.10;99.90;;;;;;5036345;28;20380;-69
2023/10/10 00:41:26;;;;;;;14.57;10.67;;;13.10;99.90;;;;;;5036873;28;20460;-68
2023/10/10 00:43:53;;;;;;;10.50;8.30;;;13.10;99.90;;;;;;5036450;28;20376;-68
2023/10/10 00:46:24;;;;;;;11.70;8.43;;;13.10;99.90;;;;;;5035032;28;20473;-68
2023/10/10 00:49:00;;;;;;;12.27;8.70;;;13.10;99.90;;;;;;5020711;28;20905;-69
2023/10/10 00:51:33;;;;;;;13.20;9.17;;;13.10;99.90;;;;;;5037148;28;20413;-68
2023/10/10 00:56:45;;;;;;;10.10;8.07;;;13.10;99.90;;;;;;5038040;28;20440;-68
2023/10/10 00:59:16;;;;;;;10.67;7.73;;;13.10;99.90;;;;;;5019930;28;20493;-68
2023/10/10 01:01:45;;;;;;;10.87;7.80;;;13.10;99.90;;;;;;5020682;28;20410;-68
2023/10/10 01:04:14;;;;;;;10.97;9.00;;;13.10;99.90;;;;;;5019799;28;20429;-68
2023/10/10 01:06:41;;;;;;;15.80;9.40;;;13.10;99.90;;;;;;5017875;28;20840;-68
2023/10/10 01:09:20;;;;;;;11.80;9.00;;;13.10;99.90;;;;;;5053527;28;20413;-68
2023/10/10 01:11:49;;;;;;;14.97;10.60;;;13.10;99.90;;;;;;5053563;28;20467;-68
2023/10/10 01:14:18;;;;;;;15.10;10.70;;;13.10;99.90;;;;;;5019748;28;20449;-69
2023/10/10 01:16:54;;;;;;;14.90;10.53;;;13.10;99.90;;;;;;5018615;28;20446;-68
2023/10/10 01:19:21;;;;;;;14.90;10.30;;;13.00;99.90;;;;;;5051184;28;20425;-69
2023/10/10 01:21:50;;;;;;;15.17;9.90;;;13.10;99.90;;;;;;5035271;28;20497;-68
2023/10/10 01:24:21;;;;;;;15.33;10.37;;;13.10;99.90;;;;;;5020562;28;20422;-68
2023/10/10 01:26:50;;;;;;;18.83;11.00;;;13.10;99.90;;;;;;5051829;28;20444;-68
2023/10/10 01:29:26;;;;;;;22.20;10.83;;;13.10;99.90;;;;;;5020356;28;20417;-68
2023/10/10 01:31:53;;;;;;;15.40;10.07;;;13.10;99.90;;;;;;5020078;28;20464;-69
2023/10/10 01:34:31;;;;;;;15.50;11.80;;;13.10;99.90;;;;;;5019185;28;20441;-68
2023/10/10 01:37:41;;;;;;;17.50;11.37;;;13.10;99.90;;;;;;5019893;28;20448;-68
2023/10/10 01:40:15;;;;;;;15.73;10.70;;;13.00;99.90;;;;;;5022242;28;20460;-69
2023/10/10 01:42:53;;;;;;;17.70;10.87;;;13.10;99.90;;;;;;5051937;28;20970;-68
2023/10/10 01:45:23;;;;;;;20.07;11.83;;;13.10;99.90;;;;;;5036385;28;20438;-69
2023/10/10 01:48:03;;;;;;;14.67;10.03;;;13.10;99.90;;;;;;5019728;28;20421;-68
2023/10/10 01:50:32;;;;;;;18.33;10.77;;;13.10;99.90;;;;;;5053155;28;20413;-68
2023/10/10 01:53:00;;;;;;;19.77;12.63;;;13.10;99.90;;;;;;5019010;28;20467;-68
2023/10/10 01:55:27;;;;;;;28.17;13.30;;;13.10;99.90;;;;;;5051957;28;20451;-69
2023/10/10 01:58:02;;;;;;;22.23;12.70;;;13.20;99.90;;;;;;5052897;28;20770;-68
2023/10/10 02:00:34;;;;;;;27.17;14.00;;;13.20;99.90;;;;;;5053055;28;20455;-69
2023/10/10 02:03:01;;;;;;;24.43;13.13;;;13.20;99.90;;;;;;5036199;28;20414;-68
2023/10/10 02:05:45;;;;;;;25.40;14.10;;;13.20;99.90;;;;;;5034495;28;20380;-69
2023/10/10 02:08:11;;;;;;;27.00;13.67;;;13.20;99.90;;;;;;5053013;28;20434;-68
2023/10/10 02:10:44;;;;;;;24.87;13.40;;;13.10;99.90;;;;;;5018242;28;20400;-68
2023/10/10 02:13:14;;;;;;;24.70;13.50;;;13.20;99.90;;;;;;5053042;28;20404;-68
2023/10/10 02:15:40;;;;;;;25.00;13.87;;;13.20;99.90;;;;;;5018271;28;20533;-69
2023/10/10 02:18:13;;;;;;;28.00;13.27;;;13.20;99.90;;;;;;5018658;28;20572;-68
2023/10/10 02:23:24;;;;;;;22.80;13.80;;;13.20;99.90;;;;;;5036693;28;20408;-68
2023/10/10 02:25:53;;;;;;;24.70;14.90;;;13.20;99.90;;;;;;5003535;28;20907;-68
2023/10/10 02:28:20;;;;;;;23.33;13.93;;;13.20;99.90;;;;;;5019451;28;20470;-68
2023/10/10 02:30:52;;;;;;;28.20;13.40;;;13.10;99.90;;;;;;5018911;28;20413;-68
2023/10/10 02:35:57;;;;;;;20.80;13.80;;;13.10;99.90;;;;;;5018547;28;20504;-68
2023/10/10 02:38:34;;;;;;;24.50;13.07;;;13.10;99.90;;;;;;5039491;28;20420;-69
2023/10/10 02:43:56;;;;;;;27.73;13.87;;;13.20;99.90;;;;;;5039816;28;20821;-70
2023/10/10 02:46:39;;;;;;;20.97;13.67;;;13.20;99.90;;;;;;5055446;28;20467;-68
2023/10/10 02:49:23;;;;;;;22.07;12.60;;;13.10;99.90;;;;;;5039048;28;20931;-68
2023/10/10 02:51:58;;;;;;;24.67;15.03;;;13.20;99.90;;;;;;5040120;28;20430;-68
2023/10/10 02:54:33;;;;;;;21.67;13.40;;;13.20;99.90;;;;;;5023281;28;20484;-76
2023/10/10 02:57:26;;;;;;;19.60;12.30;;;13.20;99.90;;;;;;5040977;28;20429;-69
2023/10/10 03:02:53;;;;;;;23.63;12.60;;;13.00;99.90;;;;;;5041012;28;20840;-68
2023/10/10 03:05:38;;;;;;;22.43;13.90;;;13.00;99.90;;;;;;5038451;28;20405;-68
2023/10/10 03:08:28;;;;;;;21.83;11.27;;;13.00;99.90;;;;;;5040902;28;20406;-68
2023/10/10 03:11:00;;;;;;;19.47;12.13;;;12.90;99.90;;;;;;5048832;28;20397;-68
2023/10/10 03:13:35;;;;;;;19.50;11.57;;;13.00;99.90;;;;;;5055307;28;20500;-68
2023/10/10 03:19:28;;;;;;;24.90;11.17;;;13.00;99.90;;;;;;5024303;28;20409;-69
2023/10/10 03:29:20;;;;;;;18.90;12.03;;;13.00;99.90;;;;;;5021277;28;20419;-68
2023/10/10 03:32:20;;;;;;;18.07;12.23;;;12.90;99.90;;;;;;5007370;28;20261;-69
2023/10/10 03:35:03;;;;;;;20.20;11.13;;;12.90;99.90;;;;;;5041599;28;20453;-69
2023/10/10 03:37:39;;;;;;;19.70;12.20;;;13.00;99.90;;;;;;5026070;28;20853;-69
2023/10/10 05:24:24;;;;;;;16.93;10.47;;;12.20;99.90;;;;;;5053538;28;20390;-68
2023/10/10 05:26:51;;;;;;;34.57;12.07;;;12.20;99.90;;;;;;5052858;28;20841;-71
2023/10/10 05:29:19;;;;;;;19.03;11.23;;;12.20;99.90;;;;;;5053326;28;20409;-68
2023/10/10 05:31:46;;;;;;;18.90;10.87;;;12.20;99.90;;;;;;5053189;28;20393;-69
2023/10/10 05:34:14;;;;;;;19.33;11.43;;;12.20;99.90;;;;;;5035543;28;20405;-68
2023/10/10 05:36:42;;;;;;;14.20;9.10;;;12.10;99.90;;;;;;5052303;28;20445;-70
2023/10/10 05:39:11;;;;;;;21.50;12.90;;;12.20;99.90;;;;;;5034386;28;20414;-69
2023/10/10 05:41:40;;;;;;;14.73;9.77;;;12.20;99.90;;;;;;5035571;28;20766;-67
2023/10/10 05:44:08;;;;;;;21.53;10.77;;;12.20;99.90;;;;;;5052562;28;20852;-67
2023/10/10 05:46:34;;;;;;;19.10;11.23;;;12.30;99.90;;;;;;5051805;28;20429;-69
2023/10/10 05:49:01;;;;;;;21.73;10.93;;;12.30;99.90;;;;;;5052828;28;20395;-69
2023/10/10 05:51:26;;;;;;;20.53;12.30;;;12.30;99.90;;;;;;5052738;28;20372;-68
2023/10/10 05:53:52;;;;;;;25.87;11.60;;;12.40;99.90;;;;;;5052906;28;20727;-69
2023/10/10 05:56:18;;;;;;;19.27;11.80;;;12.40;99.90;;;;;;5034101;28;20202;-68
2023/10/10 05:58:46;;;;;;;20.20;11.00;;;12.40;99.90;;;;;;5052644;28;20544;-69
2023/10/10 06:01:16;;;;;;;18.43;11.13;;;12.40;99.90;;;;;;5035538;28;20781;-69
2023/10/10 06:03:44;;;;;;;18.53;9.90;;;12.50;99.90;;;;;;5018804;28;20412;-68
2023/10/10 06:06:18;;;;;;;18.40;11.40;;;12.40;99.90;;;;;;5051667;28;20429;-68
2023/10/10 06:09:00;;;;;;;18.57;11.00;;;12.40;99.90;;;;;;5037316;28;20401;-71
2023/10/10 06:11:29;;;;;;;19.33;11.03;;;12.30;99.90;;;;;;5052618;28;20452;-70
2023/10/10 06:13:56;;;;;;;19.33;10.07;;;12.30;99.90;;;;;;5022906;28;20376;-72
2023/10/10 06:16:23;;;;;;;20.63;11.10;;;12.20;99.90;;;;;;5021867;28;20435;-68
2023/10/10 06:18:50;;;;;;;20.30;12.10;;;12.20;99.90;;;;;;5022658;28;20812;-69
2023/10/10 06:21:18;;;;;;;20.13;10.57;;;12.20;99.90;;;;;;5038780;28;20470;-69
2023/10/10 06:23:45;;;;;;;13.43;10.03;;;12.20;99.90;;;;;;5039021;28;20392;-68
2023/10/10 06:26:13;;;;;;;17.30;9.93;;;12.20;99.90;;;;;;5055934;28;20426;-68
2023/10/10 06:28:45;;;;;;;17.27;10.73;;;12.30;99.90;;;;;;5038706;28;20411;-68
2023/10/10 06:31:33;;;;;;;20.63;11.47;;;12.30;99.90;;;;;;5023912;28;20380;-70
2023/10/10 06:33:59;;;;;;;16.13;10.70;;;12.30;99.90;;;;;;5026050;28;20384;-69
2023/10/10 06:36:32;;;;;;;18.17;11.37;;;12.40;99.90;;;;;;5037792;28;20973;-68
2023/10/10 06:41:41;;;;;;;22.10;12.07;;;12.40;99.90;;;;;;5023614;28;20714;-70
2023/10/10 06:44:13;;;;;;;14.73;8.93;;;12.30;99.90;;;;;;5008345;28;20423;-69
2023/10/10 06:46:41;;;;;;;15.33;9.83;;;12.40;99.90;;;;;;5055111;28;20428;-69
2023/10/10 06:49:43;;;;;;;14.33;8.70;;;12.30;99.90;;;;;;5055531;28;20421;-68
2023/10/10 06:52:14;;;;;;;21.00;10.50;;;12.40;99.90;;;;;;5040316;28;20380;-69
2023/10/10 06:54:56;;;;;;;19.43;11.03;;;12.30;99.90;;;;;;5039326;28;20459;-69
2023/10/10 06:57:57;;;;;;;19.20;11.07;;;12.40;99.90;;;;;;5021760;28;20407;-69
2023/10/10 07:00:21;;;;;;;18.50;9.70;;;12.40;99.90;;;;;;5055168;28;20410;-69
2023/10/10 07:02:53;;;;;;;16.27;10.13;;;12.40;99.90;;;;;;5055800;28;20743;-68
2023/10/10 07:05:20;;;;;;;19.87;11.73;;;12.40;99.90;;;;;;5036961;28;20427;-69
2023/10/10 07:07:52;;;;;;;19.97;11.50;;;12.50;99.90;;;;;;5037773;28;20462;-69
2023/10/10 07:10:34;;;;;;;17.57;10.23;;;12.50;99.90;;;;;;5022896;28;20876;-72
2023/10/10 07:13:11;;;;;;;22.00;11.50;;;12.50;99.90;;;;;;5025600;28;20445;-68
2023/10/10 07:15:53;;;;;;;22.50;11.37;;;12.60;99.90;;;;;;5038858;28;20465;-69
2023/10/10 07:18:40;;;;;;;20.10;10.57;;;12.70;99.90;;;;;;5055608;28;20387;-69
2023/10/10 07:21:18;;;;;;;20.20;10.20;;;12.90;99.90;;;;;;5021629;28;20413;-68
2023/10/10 07:24:02;;;;;;;17.00;9.33;;;12.90;99.90;;;;;;5054477;28;20380;-68
2023/10/10 07:26:31;;;;;;;14.53;8.33;;;12.90;99.90;;;;;;5054549;28;20392;-73
2023/10/10 07:29:26;;;;;;;16.23;8.00;;;12.90;99.90;;;;;;5021320;28;20417;-68
2023/10/10 07:31:43;;;;;;;13.57;9.33;;;12.90;99.90;;;;;;5054764;28;20396;-69
2023/10/10 07:34:15;;;;;;;17.23;8.90;;;13.00;99.90;;;;;;5037329;28;20784;-68
2023/10/10 07:36:43;;;;;;;19.80;9.77;;;13.00;99.90;;;;;;5037413;28;20202;-69
2023/10/10 07:41:57;;;;;;;15.93;10.50;;;13.10;99.90;;;;;;5055474;28;20456;-71
2023/10/10 07:44:23;;;;;;;16.47;8.33;;;13.10;99.90;;;;;;5054533;28;20398;-77
2023/10/10 07:49:33;;;;;;;16.07;8.40;;;13.20;99.90;;;;;;5051923;28;20456;-68
2023/10/10 07:52:02;;;;;;;16.77;9.23;;;13.20;99.90;;;;;;5034944;28;20402;-72
2023/10/10 07:54:44;;;;;;;15.63;9.13;;;13.20;99.90;;;;;;5034723;28;20246;-80
2023/10/10 07:57:17;;;;;;;18.60;9.27;;;13.20;99.90;;;;;;5034854;28;20457;-68
2023/10/10 07:59:44;;;;;;;14.87;8.97;;;13.20;99.90;;;;;;5018328;28;20961;-69
2023/10/10 08:02:24;;;;;;;17.20;9.23;;;13.10;99.90;;;;;;5017246;28;20437;-69
2023/10/10 08:04:54;;;;;;;17.60;10.03;;;13.20;99.90;;;;;;5018395;28;20457;-68
2023/10/10 08:07:22;;;;;;;13.07;8.60;;;13.30;99.90;;;;;;5033564;28;20401;-68
2023/10/10 08:12:39;;;;;;;11.10;8.37;;;13.40;99.90;;;;;;5019735;28;20409;-70
2023/10/10 08:15:26;;;;;;;15.47;9.00;;;13.40;99.90;;;;;;5033720;28;20464;-68
2023/10/10 08:17:54;;;;;;;16.23;8.23;;;13.50;99.90;;;;;;5034003;28;20509;-69
2023/10/10 08:23:08;;;;;;;18.07;9.47;;;13.50;99.90;;;;;;5034462;28;20461;-69
2023/10/10 08:25:37;;;;;;;15.57;7.73;;;13.50;99.90;;;;;;5032882;28;20402;-69
2023/10/10 08:28:05;;;;;;;13.33;8.10;;;13.60;99.90;;;;;;5033724;28;20203;-68
2023/10/10 08:30:32;;;;;;;13.00;8.13;;;13.60;99.90;;;;;;5016656;28;20434;-68
2023/10/10 08:32:59;;;;;;;13.50;7.70;;;13.60;99.90;;;;;;5016189;28;20426;-69
2023/10/10 08:35:29;;;;;;;15.87;8.20;;;13.60;99.90;;;;;;5015519;28;20480;-68
2023/10/10 08:37:57;;;;;;;10.50;7.00;;;13.60;99.90;;;;;;5033319;28;20401;-69
2023/10/10 08:40:26;;;;;;;14.17;7.60;;;13.50;99.90;;;;;;5016704;28;20411;-69
2023/10/10 08:42:53;;;;;;;12.50;7.67;;;13.60;99.90;;;;;;5014536;28;20502;-68
2023/10/10 08:45:24;;;;;;;12.90;8.30;;;13.60;99.90;;;;;;5014499;28;20422;-69
2023/10/10 08:48:01;;;;;;;13.40;8.37;;;13.60;99.90;;;;;;5016117;28;20976;-69
2023/10/10 08:50:32;;;;;;;12.40;7.77;;;13.70;99.90;;;;;;5016806;28;20461;-72
2023/10/10 08:52:59;;;;;;;12.57;7.60;;;13.70;99.90;;;;;;5018051;28;20918;-69
2023/10/10 08:55:28;;;;;;;18.83;8.57;;;13.80;99.90;;;;;;5014495;28;20467;-68
2023/10/10 08:57:57;;;;;;;12.80;7.63;;;13.80;99.90;;;;;;5016399;28;20913;-71
2023/10/10 09:00:29;;;;;;;11.63;8.00;;;13.80;99.90;;;;;;5016876;28;20430;-68
2023/10/10 09:02:56;;;;;;;10.17;7.57;;;13.80;99.90;;;;;;5017212;28;20454;-74
2023/10/10 09:05:24;;;;;;;10.27;7.17;;;13.80;99.90;;;;;;5015676;28;20483;-69
2023/10/10 09:07:54;;;;;;;8.10;6.80;;;13.90;99.90;;;;;;4999332;28;20419;-71
2023/10/10 09:10:37;;;;;;;13.00;9.03;;;13.90;99.90;;;;;;5017835;28;20434;-69
2023/10/10 09:13:04;;;;;;;13.47;9.80;;;14.00;99.90;;;;;;5031650;28;20426;-69
2023/10/10 09:15:33;;;;;;;14.33;7.63;;;14.00;99.90;;;;;;5019812;28;20456;-69
2023/10/10 09:18:17;;;;;;;13.80;8.67;;;14.10;99.90;;;;;;5042485;28;20468;-68
2023/10/10 09:20:46;;;;;;;12.83;8.00;;;14.10;99.90;;;;;;5015587;28;20410;-68
2023/10/10 09:23:28;;;;;;;12.50;7.20;;;14.10;99.90;;;;;;5015835;28;20410;-74
2023/10/10 09:26:12;;;;;;;16.47;8.90;;;14.20;99.90;;;;;;5032290;28;20433;-70
2023/10/10 09:28:49;;;;;;;12.67;7.53;;;14.20;99.90;;;;;;5032459;28;20802;-69
2023/10/10 09:31:32;;;;;;;13.50;8.37;;;14.20;99.90;;;;;;5040113;28;20424;-72
2023/10/10 09:34:03;;;;;;;14.07;9.30;;;14.20;99.90;;;;;;5053010;28;20393;-69
2023/10/10 09:36:38;;;;;;;14.27;8.90;;;14.20;99.90;;;;;;5051990;28;20976;-69
2023/10/10 09:39:08;;;;;;;19.07;10.33;;;14.20;99.90;;;;;;5018727;28;20446;-69
2023/10/10 09:41:37;;;;;;;19.67;10.10;;;14.20;99.90;;;;;;5035282;28;20473;-69
2023/10/10 09:50:00;;;;;;;19.23;9.00;;;14.20;99.90;;;;;;5052814;28;20483;-69
2023/10/10 10:00:45;;;;;;;21.53;10.83;;;14.30;99.90;;;;;;5036717;28;20378;-69
2023/10/10 10:03:31;;;;;;;16.50;10.07;;;14.30;99.90;;;;;;5023215;28;20925;-69
2023/10/10 10:09:31;;;;;;;19.40;10.70;;;14.40;99.90;;;;;;5023901;28;20413;-69
2023/10/10 10:12:35;;;;;;;21.00;10.67;;;14.50;99.90;;;;;;5032932;28;20456;-68
2023/10/10 10:15:48;;;;;;;19.50;11.53;;;14.40;99.90;;;;;;5031515;28;20437;-68
2023/10/10 10:18:26;;;;;;;22.90;10.80;;;14.50;99.90;;;;;;5032669;28;20478;-68
2023/10/10 10:21:14;;;;;;;20.30;10.73;;;14.60;99.90;;;;;;5032468;28;20414;-68
2023/10/10 10:23:45;;;;;;;17.07;10.00;;;14.70;99.90;;;;;;5018073;28;20401;-68
2023/10/10 10:29:15;;;;;;;24.67;11.83;;;14.80;99.90;;;;;;5032905;28;20409;-68
2023/10/10 10:31:48;;;;;;;21.87;11.90;;;14.80;99.90;;;;;;5016404;28;20429;-68
2023/10/10 10:34:31;;;;;;;22.70;13.60;;;14.90;99.90;;;;;;5031588;28;20402;-68
2023/10/10 10:37:23;;;;;;;27.40;14.37;;;14.90;99.90;;;;;;5003021;28;20481;-69
2023/10/10 10:42:51;;;;;;;21.40;12.03;;;15.00;99.90;;;;;;4998368;28;20425;-68
2023/10/10 10:45:36;;;;;;;22.23;13.20;;;15.10;99.90;;;;;;5014136;28;20434;-69
2023/10/10 10:48:31;;;;;;;19.77;12.87;;;15.20;99.90;;;;;;4999504;28;20449;-72
2023/10/10 10:51:02;;;;;;;21.83;11.53;;;15.20;99.90;;;;;;5011242;28;20438;-75
2023/10/10 10:53:38;;;;;;;19.67;12.40;;;15.40;99.90;;;;;;4998494;28;20505;-68
2023/10/10 11:01:45;;;;;;;18.50;11.20;;;15.50;99.90;;;;;;5036204;28;20398;-69
2023/10/10 11:04:24;;;;;;;29.17;12.63;;;15.60;99.90;;;;;;5035838;28;20468;-69
2023/10/10 11:06:59;;;;;;;16.40;11.47;;;15.80;99.90;;;;;;5035051;28;20418;-69
2023/10/10 11:09:28;;;;;;;20.70;12.20;;;15.80;99.90;;;;;;5019489;28;20452;-73
2023/10/10 11:12:03;;;;;;;25.47;14.77;;;15.90;99.90;;;;;;5017653;28;20438;-69
2023/10/10 11:14:44;;;;;;;18.93;10.50;;;15.90;99.90;;;;;;5017545;28;20479;-82
2023/10/10 11:17:17;;;;;;;26.70;13.77;;;16.00;99.90;;;;;;5003556;28;20465;-68
2023/10/10 11:19:46;;;;;;;19.43;11.10;;;16.20;99.90;;;;;;5018652;28;20407;-68
2023/10/10 11:22:38;;;;;;;18.40;11.70;;;16.40;99.90;;;;;;5002458;28;20910;-68
2023/10/10 11:25:04;;;;;;;20.00;11.53;;;16.50;99.90;;;;;;5006924;28;20419;-69
2023/10/10 11:27:43;;;;;;;19.83;11.40;;;16.60;99.90;;;;;;5034681;28;20434;-70
2023/10/10 11:30:19;;;;;;;20.30;10.83;;;16.60;99.90;;;;;;5019583;28;20426;-69
2023/10/10 11:32:48;;;;;;;19.23;11.33;;;16.60;99.90;;;;;;5035445;28;20436;-69
2023/10/10 11:35:23;;;;;;;13.73;10.20;;;16.60;99.90;;;;;;5034401;28;20446;-68
2023/10/10 11:37:59;;;;;;;14.50;9.17;;;16.50;99.90;;;;;;5035319;28;20402;-68
2023/10/10 11:43:05;;;;;;;19.10;8.40;;;16.40;99.90;;;;;;5017313;28;20418;-70
2023/10/10 11:45:50;;;;;;;13.33;8.67;;;16.50;99.90;;;;;;5033421;28;20429;-69
2023/10/10 11:48:18;;;;;;;33.53;7.53;;;16.70;99.90;;;;;;5034896;28;20894;-69
2023/10/10 11:50:56;;;;;;;9.13;6.87;;;16.70;99.90;;;;;;5016461;28;20426;-69
2023/10/10 11:53:27;;;;;;;9.23;7.53;;;16.80;99.90;;;;;;5031706;28;20397;-72
2023/10/10 11:56:04;;;;;;;11.53;7.37;;;16.90;99.90;;;;;;5018306;28;20902;-69
2023/10/10 11:58:37;;;;;;;13.23;7.63;;;17.00;99.90;;;;;;5034149;28;20415;-69
2023/10/10 12:01:09;;;;;;;12.30;7.80;;;17.10;99.90;;;;;;5017860;28;20417;-69
2023/10/10 12:03:42;;;;;;;9.60;7.77;;;17.10;99.90;;;;;;5001434;28;20498;-73
2023/10/10 12:06:26;;;;;;;10.90;7.50;;;17.20;99.90;;;;;;5033590;28;20440;-73
2023/10/10 12:08:54;;;;;;;7.27;6.10;;;17.30;99.90;;;;;;5018877;28;20423;-69
2023/10/10 12:11:20;;;;;;;13.90;6.80;;;17.30;99.90;;;;;;5000865;28;20410;-69
2023/10/10 12:13:51;;;;;;;5.97;5.40;;;17.30;99.90;;;;;;5025865;28;20552;-68
2023/10/10 12:16:25;;;;;;;10.40;5.63;;;17.40;99.90;;;;;;5032703;28;20877;-69
2023/10/10 12:18:54;;;;;;;6.70;6.07;;;17.40;99.90;;;;;;5017475;28;20418;-69
2023/10/10 12:21:21;;;;;;;8.40;6.60;;;17.40;99.90;;;;;;5017422;28;20411;-67
2023/10/10 12:23:57;;;;;;;7.13;5.77;;;17.40;99.90;;;;;;5015821;28;20450;-69
2023/10/10 12:26:23;;;;;;;6.20;5.60;;;17.40;99.90;;;;;;5016014;28;20482;-70
2023/10/10 12:28:53;;;;;;;9.90;5.83;;;17.50;99.90;;;;;;5016597;28;20494;-70
2023/10/10 12:31:23;;;;;;;11.20;5.50;;;17.50;94.50;;;;;;5017100;28;20898;-69
2023/10/10 12:33:49;;;;;;;12.13;5.07;;;17.50;86.40;;;;;;5016576;28;20489;-68
2023/10/10 12:36:22;;;;;;;6.73;4.67;;;17.60;76.70;;;;;;5033365;28;20551;-70
2023/10/10 12:38:49;;;;;;;6.47;4.27;;;17.60;61.50;;;;;;5033999;28;20402;-70
2023/10/10 12:41:20;;;;;;;4.73;3.90;;;17.70;45.90;;;;;;5000384;28;20414;-69
2023/10/10 12:43:48;;;;;;;3.90;3.53;;;17.70;25.40;;;;;;5016203;28;20425;-69
2023/10/10 12:46:17;;;;;;;4.10;3.80;;;17.60;1.00;;;;;;5016106;28;20434;-70
2023/10/10 12:48:43;;;;;;;4.57;4.13;;;17.50;1.00;;;;;;5000371;28;20533;-70
2023/10/10 12:51:10;;;;;;;4.70;3.77;;;17.50;1.00;;;;;;5000146;28;20468;-69
2023/10/10 12:53:42;;;;;;;3.80;3.23;;;17.50;1.00;;;;;;4999993;28;20410;-69
2023/10/10 12:56:20;;;;;;;3.87;3.20;;;17.50;1.00;;;;;;5014905;28;20565;-69
2023/10/10 12:58:52;;;;;;;4.30;3.70;;;17.40;1.00;;;;;;5000771;28;20426;-71
2023/10/10 13:01:25;;;;;;;3.70;3.33;;;17.40;1.00;;;;;;5001796;28;20407;-69
2023/10/10 13:03:53;;;;;;;4.47;4.07;;;17.40;1.00;;;;;;4999842;28;20497;-69
2023/10/10 13:06:22;;;;;;;7.30;3.70;;;17.30;1.00;;;;;;5032941;28;20503;-69
2023/10/10 13:08:50;;;;;;;4.40;4.00;;;17.30;1.00;;;;;;4992455;28;20418;-69
2023/10/10 13:11:20;;;;;;;3.70;3.30;;;17.30;1.00;;;;;;4999991;28;20430;-69
2023/10/10 13:13:56;;;;;;;3.70;3.40;;;17.30;1.00;;;;;;5016462;28;20413;-69
2023/10/10 13:18:54;;;;;;;3.83;3.47;;;17.20;1.00;;;;;;5000497;28;20802;-68
2023/10/10 13:21:20;;;;;;;4.83;3.70;;;17.20;1.00;;;;;;4982161;28;20419;-69
2023/10/10 13:23:50;;;;;;;3.60;3.30;;;17.20;1.00;;;;;;4999108;28;20451;-68
2023/10/10 13:26:17;;;;;;;4.33;3.93;;;17.20;1.00;;;;;;5032535;28;20484;-69
2023/10/10 13:28:44;;;;;;;4.30;3.73;;;17.20;1.00;;;;;;4999248;28;20410;-69
2023/10/10 13:31:17;;;;;;;4.20;3.80;;;17.20;1.00;;;;;;5015978;28;20424;-69
2023/10/10 13:33:44;;;;;;;8.77;4.60;;;17.20;1.00;;;;;;5032935;28;20460;-69
2023/10/10 13:36:15;;;;;;;6.13;3.50;;;17.10;1.00;;;;;;4998615;28;20895;-69
2023/10/10 13:38:50;;;;;;;4.60;3.57;;;17.10;1.00;;;;;;5015828;28;20465;-70
2023/10/10 13:41:18;;;;;;;3.50;2.80;;;17.00;1.00;;;;;;5014707;28;20422;-69
2023/10/10 13:43:52;;;;;;;4.13;3.30;;;17.00;1.00;;;;;;5015402;28;20493;-69
2023/10/10 13:46:23;;;;;;;4.13;3.40;;;17.10;1.00;;;;;;4999492;28;20441;-69
2023/10/10 13:48:51;;;;;;;4.37;3.97;;;17.10;1.00;;;;;;5032838;28;20960;-69
2023/10/10 13:51:19;;;;;;;3.87;3.57;;;17.10;1.00;;;;;;5014394;28;20426;-68
2023/10/10 13:53:47;;;;;;;3.33;3.10;;;17.00;1.00;;;;;;5015324;28;20425;-69
2023/10/10 13:56:16;;;;;;;3.87;3.50;;;17.00;6.40;;;;;;4998371;28;20480;-69
2023/10/10 13:58:48;;;;;;;8.77;3.73;;;17.00;10.60;;;;;;4998956;28;20422;-70
2023/10/10 14:01:18;;;;;;;7.80;4.83;;;17.10;15.50;;;;;;5032481;28;20818;-69
2023/10/10 14:03:48;;;;;;;6.63;3.90;;;17.00;19.30;;;;;;5015837;28;20414;-69
2023/10/10 14:06:26;;;;;;;4.67;4.27;;;17.00;24.70;;;;;;4997953;28;20500;-69
2023/10/10 14:08:57;;;;;;;4.00;3.67;;;17.10;32.20;;;;;;5001165;28;20449;-71
2023/10/10 14:11:24;;;;;;;5.20;3.87;;;17.10;39.40;;;;;;5031805;28;20637;-69
2023/10/10 14:13:52;;;;;;;8.93;4.40;;;17.10;31.70;;;;;;5015306;28;20418;-69
2023/10/10 14:16:19;;;;;;;4.73;4.33;;;17.00;27.30;;;;;;5031871;28;20457;-68
2023/10/10 14:18:49;;;;;;;9.03;4.17;;;17.00;22.60;;;;;;4998694;28;20413;-71
2023/10/10 14:21:27;;;;;;;6.30;4.97;;;17.00;30.50;;;;;;5014890;28;20828;-68
2023/10/10 14:24:13;;;;;;;5.73;5.20;;;17.00;39.40;;;;;;5000794;28;20410;-69
2023/10/10 14:26:43;;;;;;;9.00;6.40;;;17.00;39.50;;;;;;5003204;28;20437;-68
2023/10/10 14:29:12;;;;;;;10.23;6.60;;;17.00;38.80;;;;;;4999648;28;20437;-69
2023/10/10 14:31:42;;;;;;;8.33;5.93;;;17.00;39.40;;;;;;5015412;28;20422;-69
2023/10/10 14:34:19;;;;;;;10.20;6.67;;;17.00;38.40;;;;;;5018482;28;20415;-69
2023/10/10 14:36:48;;;;;;;8.40;6.40;;;17.00;27.40;;;;;;5035520;28;20469;-71
2023/10/10 14:39:44;;;;;;;6.40;5.73;;;17.10;25.90;;;;;;5001957;28;20747;-69
2023/10/10 14:42:02;;;;;;;8.80;5.90;;;17.10;23.50;;;;;;5014861;28;20517;-71
2023/10/10 14:44:29;;;;;;;7.40;6.80;;;17.10;22.40;;;;;;5018390;28;20418;-69
2023/10/10 14:46:57;;;;;;;8.60;6.67;;;17.10;17.80;;;;;;5022185;28;20433;-68
2023/10/10 14:49:30;;;;;;;7.40;6.27;;;17.10;19.40;;;;;;5037832;28;20606;-69
2023/10/10 14:52:03;;;;;;;6.23;5.73;;;17.10;22.30;;;;;;5039266;28;20739;-68
2023/10/10 14:54:30;;;;;;;6.47;5.87;;;17.10;24.40;;;;;;5023122;28;20398;-73
2023/10/10 14:56:57;;;;;;;7.33;6.53;;;17.10;26.40;;;;;;5037853;28;20425;-68
2023/10/10 14:59:31;;;;;;;7.57;5.77;;;17.20;30.80;;;;;;5038268;28;20480;-71
2023/10/10 15:02:04;;;;;;;6.93;6.20;;;17.20;36.50;;;;;;5024000;28;20413;-67
2023/10/10 15:04:30;;;;;;;6.37;5.77;;;17.20;38.90;;;;;;5038582;28;20890;-80
2023/10/10 15:06:59;;;;;;;11.50;6.40;;;17.30;33.70;;;;;;5037802;28;20422;-68
2023/10/10 15:09:25;;;;;;;7.70;6.90;;;17.30;30.40;;;;;;5037547;28;20421;-73
2023/10/10 15:11:54;;;;;;;9.63;6.57;;;17.20;30.90;;;;;;5037543;28;20421;-70
2023/10/10 15:14:21;;;;;;;7.53;6.60;;;17.30;39.80;;;;;;5038056;28;20420;-68
2023/10/10 15:16:49;;;;;;;6.53;5.90;;;17.40;39.80;;;;;;5037268;28;20860;-69
2023/10/10 15:19:16;;;;;;;6.50;5.90;;;17.40;39.80;;;;;;5021396;28;20409;-69
2023/10/10 15:21:47;;;;;;;11.43;6.27;;;17.30;39.30;;;;;;5055484;28;20412;-69
2023/10/10 15:24:15;;;;;;;9.63;7.40;;;17.40;39.80;;;;;;5038472;28;20413;-69
2023/10/10 15:26:48;;;;;;;9.43;7.60;;;17.40;41.80;;;;;;5020592;28;20437;-73
2023/10/10 15:29:20;;;;;;;7.20;6.50;;;17.40;39.80;;;;;;5020908;28;20417;-68
2023/10/10 15:31:50;;;;;;;7.53;6.83;;;17.40;39.90;;;;;;5034933;28;20432;-73
2023/10/10 15:34:16;;;;;;;8.57;7.10;;;17.40;39.80;;;;;;5055155;28;20515;-69
2023/10/10 15:36:44;;;;;;;11.03;7.60;;;17.40;39.90;;;;;;5020304;28;20457;-69
2023/10/10 15:39:12;;;;;;;8.13;7.10;;;17.40;39.80;;;;;;5037816;28;20402;-69
2023/10/10 15:41:42;;;;;;;9.30;7.70;;;17.40;39.90;;;;;;5055096;28;20451;-69
2023/10/10 15:44:12;;;;;;;10.53;7.63;;;17.40;39.80;;;;;;5036337;28;20413;-69
2023/10/10 15:46:38;;;;;;;12.87;9.00;;;17.40;49.60;;;;;;5020143;28;20817;-69
2023/10/10 15:49:09;;;;;;;10.67;8.70;;;17.40;55.70;;;;;;5037418;28;20464;-69
2023/10/10 15:51:39;;;;;;;10.50;8.40;;;17.40;57.00;;;;;;5054330;28;20971;-68
2023/10/10 15:54:08;;;;;;;11.93;10.77;;;17.40;57.70;;;;;;5037559;28;20420;-69
2023/10/10 15:56:38;;;;;;;13.63;10.83;;;17.40;64.30;;;;;;5019741;28;20469;-69
2023/10/10 15:59:05;;;;;;;13.40;10.90;;;17.40;67.00;;;;;;5037668;28;20410;-69